sensor_id;sensor_type;location;lat;lon;timestamp;temperature;humidity
70246;SHT30;57637;49.272;8.590;2023-07-16T00:02:19;20.61;85.75
70246;SHT30;57637;49.272;8.590;2023-07-16T00:04:45;20.64;85.31
70246;SHT30;57637;49.272;8.590;2023-07-16T00:07:10;20.64;85.10
70246;SHT30;57637;49.272;8.590;2023-07-16T00:09:36;20.64;85.08
70246;SHT30;57637;49.272;8.590;2023-07-16T00:12:01;20.59;85.25
70246;SHT30;57637;49.272;8.590;2023-07-16T00:14:27;20.54;85.40
70246;SHT30;57637;49.272;8.590;2023-07-16T00:16:52;20.48;85.42
70246;SHT30;57637;49.272;8.590;2023-07-16T00:19:18;20.44;85.46
70246;SHT30;57637;49.272;8.590;2023-07-16T00:21:43;20.37;85.41
70246;SHT30;57637;49.272;8.590;2023-07-16T00:24:08;20.34;85.52
70246;SHT30;57637;49.272;8.590;2023-07-16T00:26:34;20.33;85.19
70246;SHT30;57637;49.272;8.590;2023-07-16T00:28:59;20.34;84.86
70246;SHT30;57637;49.272;8.590;2023-07-16T00:31:25;20.35;84.97
70246;SHT30;57637;49.272;8.590;2023-07-16T00:33:50;20.34;84.62
70246;SHT30;57637;49.272;8.590;2023-07-16T00:36:15;20.27;84.75
70246;SHT30;57637;49.272;8.590;2023-07-16T00:38:41;20.20;84.99
70246;SHT30;57637;49.272;8.590;2023-07-16T00:41:07;20.18;85.11
70246;SHT30;57637;49.272;8.590;2023-07-16T00:43:33;20.17;85.20
70246;SHT30;57637;49.272;8.590;2023-07-16T00:45:59;20.18;85.24
70246;SHT30;57637;49.272;8.590;2023-07-16T00:48:24;20.18;85.25
70246;SHT30;57637;49.272;8.590;2023-07-16T00:50:50;20.16;85.22
70246;SHT30;57637;49.272;8.590;2023-07-16T00:53:19;20.20;85.25
70246;SHT30;57637;49.272;8.590;2023-07-16T00:55:44;20.14;85.11
70246;SHT30;57637;49.272;8.590;2023-07-16T00:58:10;20.09;85.18
70246;SHT30;57637;49.272;8.590;2023-07-16T01:00:37;20.09;85.29
70246;SHT30;57637;49.272;8.590;2023-07-16T01:03:04;20.06;85.32
70246;SHT30;57637;49.272;8.590;2023-07-16T01:05:45;19.97;85.20
70246;SHT30;57637;49.272;8.590;2023-07-16T01:08:20;19.89;85.13
70246;SHT30;57637;49.272;8.590;2023-07-16T01:10:51;19.80;85.24
70246;SHT30;57637;49.272;8.590;2023-07-16T01:13:17;19.76;85.32
70246;SHT30;57637;49.272;8.590;2023-07-16T01:15:42;19.67;85.56
70246;SHT30;57637;49.272;8.590;2023-07-16T01:18:07;19.65;85.56
70246;SHT30;57637;49.272;8.590;2023-07-16T01:20:33;19.65;85.46
70246;SHT30;57637;49.272;8.590;2023-07-16T01:31:41;19.58;84.74
70246;SHT30;57637;49.272;8.590;2023-07-16T01:34:08;19.46;84.69
70246;SHT30;57637;49.272;8.590;2023-07-16T01:36:35;19.36;84.70
70246;SHT30;57637;49.272;8.590;2023-07-16T01:39:03;19.33;84.68
70246;SHT30;57637;49.272;8.590;2023-07-16T01:41:29;19.28;84.64
70246;SHT30;57637;49.272;8.590;2023-07-16T01:43:54;19.15;84.15
70246;SHT30;57637;49.272;8.590;2023-07-16T01:46:19;19.04;84.22
70246;SHT30;57637;49.272;8.590;2023-07-16T01:48:45;19.07;84.43
70246;SHT30;57637;49.272;8.590;2023-07-16T01:51:10;19.05;84.08
70246;SHT30;57637;49.272;8.590;2023-07-16T01:53:39;19.00;83.96
70246;SHT30;57637;49.272;8.590;2023-07-16T01:56:05;18.92;83.89
70246;SHT30;57637;49.272;8.590;2023-07-16T01:58:30;18.83;84.03
70246;SHT30;57637;49.272;8.590;2023-07-16T02:00:55;18.71;83.85
70246;SHT30;57637;49.272;8.590;2023-07-16T02:03:21;18.64;83.54
70246;SHT30;57637;49.272;8.590;2023-07-16T02:05:47;18.67;83.57
70246;SHT30;57637;49.272;8.590;2023-07-16T02:08:12;18.64;83.49
70246;SHT30;57637;49.272;8.590;2023-07-16T02:10:38;18.50;83.59
70246;SHT30;57637;49.272;8.590;2023-07-16T02:13:03;18.53;83.60
70246;SHT30;57637;49.272;8.590;2023-07-16T02:15:29;18.54;83.55
70246;SHT30;57637;49.272;8.590;2023-07-16T02:17:54;18.54;83.23
70246;SHT30;57637;49.272;8.590;2023-07-16T02:20:19;18.49;83.43
70246;SHT30;57637;49.272;8.590;2023-07-16T02:22:45;18.43;83.58
70246;SHT30;57637;49.272;8.590;2023-07-16T02:25:10;18.44;83.56
70246;SHT30;57637;49.272;8.590;2023-07-16T02:27:36;18.46;83.60
70246;SHT30;57637;49.272;8.590;2023-07-16T02:30:01;18.43;83.59
70246;SHT30;57637;49.272;8.590;2023-07-16T02:32:26;18.39;83.84
70246;SHT30;57637;49.272;8.590;2023-07-16T02:34:52;18.39;83.80
70246;SHT30;57637;49.272;8.590;2023-07-16T02:37:17;18.37;83.87
70246;SHT30;57637;49.272;8.590;2023-07-16T02:39:43;18.33;83.99
70246;SHT30;57637;49.272;8.590;2023-07-16T02:42:10;18.37;83.94
70246;SHT30;57637;49.272;8.590;2023-07-16T02:44:35;18.34;83.99
70246;SHT30;57637;49.272;8.590;2023-07-16T02:47:03;18.33;84.02
70246;SHT30;57637;49.272;8.590;2023-07-16T02:49:29;18.34;83.97
70246;SHT30;57637;49.272;8.590;2023-07-16T02:51:54;18.34;83.94
70246;SHT30;57637;49.272;8.590;2023-07-16T02:54:19;18.32;84.02
70246;SHT30;57637;49.272;8.590;2023-07-16T02:56:45;18.32;83.93
70246;SHT30;57637;49.272;8.590;2023-07-16T02:59:10;18.29;83.96
70246;SHT30;57637;49.272;8.590;2023-07-16T03:01:35;18.27;84.02
70246;SHT30;57637;49.272;8.590;2023-07-16T03:04:01;18.26;84.12
70246;SHT30;57637;49.272;8.590;2023-07-16T03:06:26;18.26;84.04
70246;SHT30;57637;49.272;8.590;2023-07-16T03:08:51;18.25;84.27
70246;SHT30;57637;49.272;8.590;2023-07-16T03:11:17;18.22;84.20
70246;SHT30;57637;49.272;8.590;2023-07-16T03:13:42;18.23;84.38
70246;SHT30;57637;49.272;8.590;2023-07-16T03:16:07;18.22;84.38
70246;SHT30;57637;49.272;8.590;2023-07-16T03:18:33;18.26;84.34
70246;SHT30;57637;49.272;8.590;2023-07-16T03:20:58;18.27;84.35
70246;SHT30;57637;49.272;8.590;2023-07-16T03:23:24;18.29;84.40
70246;SHT30;57637;49.272;8.590;2023-07-16T03:25:51;18.29;84.47
70246;SHT30;57637;49.272;8.590;2023-07-16T03:28:16;18.27;84.56
70246;SHT30;57637;49.272;8.590;2023-07-16T03:30:48;18.26;84.48
70246;SHT30;57637;49.272;8.590;2023-07-16T03:33:15;18.25;84.41
70246;SHT30;57637;49.272;8.590;2023-07-16T03:35:43;18.23;84.58
70246;SHT30;57637;49.272;8.590;2023-07-16T03:38:10;18.20;84.78
70246;SHT30;57637;49.272;8.590;2023-07-16T03:40:36;18.22;84.64
70246;SHT30;57637;49.272;8.590;2023-07-16T03:43:01;18.23;84.49
70246;SHT30;57637;49.272;8.590;2023-07-16T03:45:27;18.23;84.62
70246;SHT30;57637;49.272;8.590;2023-07-16T03:47:52;18.22;84.50
70246;SHT30;57637;49.272;8.590;2023-07-16T03:50:17;18.20;84.32
70246;SHT30;57637;49.272;8.590;2023-07-16T03:52:43;18.22;84.19
70246;SHT30;57637;49.272;8.590;2023-07-16T03:55:09;18.23;84.10
70246;SHT30;57637;49.272;8.590;2023-07-16T03:57:35;18.23;84.17
70246;SHT30;57637;49.272;8.590;2023-07-16T04:00:01;18.23;84.14
70246;SHT30;57637;49.272;8.590;2023-07-16T04:02:29;18.25;84.08
70246;SHT30;57637;49.272;8.590;2023-07-16T04:04:54;18.26;84.13
70246;SHT30;57637;49.272;8.590;2023-07-16T04:07:19;18.27;83.81
70246;SHT30;57637;49.272;8.590;2023-07-16T04:09:45;18.30;83.80
70246;SHT30;57637;49.272;8.590;2023-07-16T04:12:10;18.33;83.67
70246;SHT30;57637;49.272;8.590;2023-07-16T04:14:35;18.37;83.76
70246;SHT30;57637;49.272;8.590;2023-07-16T04:17:00;18.41;83.63
70246;SHT30;57637;49.272;8.590;2023-07-16T04:19:26;18.43;83.46
70246;SHT30;57637;49.272;8.590;2023-07-16T04:21:52;18.56;83.20
70246;SHT30;57637;49.272;8.590;2023-07-16T04:24:17;18.56;82.91
70246;SHT30;57637;49.272;8.590;2023-07-16T04:26:42;18.65;82.92
70246;SHT30;57637;49.272;8.590;2023-07-16T04:29:08;18.70;82.58
70246;SHT30;57637;49.272;8.590;2023-07-16T04:31:33;18.84;82.39
70246;SHT30;57637;49.272;8.590;2023-07-16T04:33:58;18.92;82.09
70246;SHT30;57637;49.272;8.590;2023-07-16T04:36:24;19.05;81.52
70246;SHT30;57637;49.272;8.590;2023-07-16T04:38:50;19.16;81.09
70246;SHT30;57637;49.272;8.590;2023-07-16T04:41:16;19.22;80.67
70246;SHT30;57637;49.272;8.590;2023-07-16T04:43:41;19.22;80.64
70246;SHT30;57637;49.272;8.590;2023-07-16T04:46:07;19.38;79.99
70246;SHT30;57637;49.272;8.590;2023-07-16T04:48:32;19.39;79.62
70246;SHT30;57637;49.272;8.590;2023-07-16T04:50:57;19.59;79.23
70246;SHT30;57637;49.272;8.590;2023-07-16T04:53:23;19.52;79.01
70246;SHT30;57637;49.272;8.590;2023-07-16T04:55:49;19.45;78.99
70246;SHT30;57637;49.272;8.590;2023-07-16T04:58:14;19.41;79.06
70246;SHT30;57637;49.272;8.590;2023-07-16T05:00:40;19.35;78.90
70246;SHT30;57637;49.272;8.590;2023-07-16T05:03:05;19.38;79.18
70246;SHT30;57637;49.272;8.590;2023-07-16T05:05:31;19.46;79.22
70246;SHT30;57637;49.272;8.590;2023-07-16T05:07:56;19.74;79.19
70246;SHT30;57637;49.272;8.590;2023-07-16T05:10:22;20.37;76.84
70246;SHT30;57637;49.272;8.590;2023-07-16T05:12:47;20.75;75.15
70246;SHT30;57637;49.272;8.590;2023-07-16T05:15:12;21.15;73.97
70246;SHT30;57637;49.272;8.590;2023-07-16T05:17:38;21.54;72.99
70246;SHT30;57637;49.272;8.590;2023-07-16T05:20:04;21.35;73.15
70246;SHT30;57637;49.272;8.590;2023-07-16T05:22:30;21.03;73.47
70246;SHT30;57637;49.272;8.590;2023-07-16T05:24:55;21.40;73.22
70246;SHT30;57637;49.272;8.590;2023-07-16T05:27:20;21.96;71.57
70246;SHT30;57637;49.272;8.590;2023-07-16T05:29:46;21.81;72.30
70246;SHT30;57637;49.272;8.590;2023-07-16T05:32:12;22.01;70.77
70246;SHT30;57637;49.272;8.590;2023-07-16T05:34:38;21.88;71.23
70246;SHT30;57637;49.272;8.590;2023-07-16T05:37:03;22.52;69.61
70246;SHT30;57637;49.272;8.590;2023-07-16T05:39:29;23.06;67.72
70246;SHT30;57637;49.272;8.590;2023-07-16T05:41:55;23.23;67.39
70246;SHT30;57637;49.272;8.590;2023-07-16T05:44:20;23.36;66.49
70246;SHT30;57637;49.272;8.590;2023-07-16T05:46:46;23.53;66.56
70246;SHT30;57637;49.272;8.590;2023-07-16T05:49:11;23.57;65.17
70246;SHT30;57637;49.272;8.590;2023-07-16T05:51:36;23.77;65.63
70246;SHT30;57637;49.272;8.590;2023-07-16T05:54:02;23.84;64.49
70246;SHT30;57637;49.272;8.590;2023-07-16T05:56:27;23.93;63.08
70246;SHT30;57637;49.272;8.590;2023-07-16T05:58:53;24.02;63.39
70246;SHT30;57637;49.272;8.590;2023-07-16T06:01:18;24.09;63.43
70246;SHT30;57637;49.272;8.590;2023-07-16T06:03:44;23.95;63.50
70246;SHT30;57637;49.272;8.590;2023-07-16T06:06:09;24.05;63.09
70246;SHT30;57637;49.272;8.590;2023-07-16T06:08:34;24.02;63.06
70246;SHT30;57637;49.272;8.590;2023-07-16T06:11:00;24.09;63.01
70246;SHT30;57637;49.272;8.590;2023-07-16T06:13:25;24.08;63.12
70246;SHT30;57637;49.272;8.590;2023-07-16T06:15:51;24.02;63.22
70246;SHT30;57637;49.272;8.590;2023-07-16T06:18:16;23.95;63.62
70246;SHT30;57637;49.272;8.590;2023-07-16T06:20:45;23.98;63.80
70246;SHT30;57637;49.272;8.590;2023-07-16T06:23:11;23.75;63.69
70246;SHT30;57637;49.272;8.590;2023-07-16T06:25:37;23.57;63.69
70246;SHT30;57637;49.272;8.590;2023-07-16T06:28:03;23.77;64.37
70246;SHT30;57637;49.272;8.590;2023-07-16T06:30:29;24.04;63.28
70246;SHT30;57637;49.272;8.590;2023-07-16T06:32:55;23.39;65.06
70246;SHT30;57637;49.272;8.590;2023-07-16T06:35:21;24.30;63.59
70246;SHT30;57637;49.272;8.590;2023-07-16T06:37:46;24.59;62.58
70246;SHT30;57637;49.272;8.590;2023-07-16T06:40:12;24.57;62.21
70246;SHT30;57637;49.272;8.590;2023-07-16T06:42:38;24.98;60.83
70246;SHT30;57637;49.272;8.590;2023-07-16T06:45:03;24.98;60.16
70246;SHT30;57637;49.272;8.590;2023-07-16T06:47:29;25.42;58.48
70246;SHT30;57637;49.272;8.590;2023-07-16T06:49:54;24.94;58.57
70246;SHT30;57637;49.272;8.590;2023-07-16T06:52:23;24.87;59.14
70246;SHT30;57637;49.272;8.590;2023-07-16T06:54:55;24.43;60.66
70246;SHT30;57637;49.272;8.590;2023-07-16T06:57:24;24.59;60.60
70246;SHT30;57637;49.272;8.590;2023-07-16T06:59:49;24.48;59.11
70246;SHT30;57637;49.272;8.590;2023-07-16T07:02:18;24.25;60.48
70246;SHT30;57637;49.272;8.590;2023-07-16T07:04:44;24.09;60.63
70246;SHT30;57637;49.272;8.590;2023-07-16T07:07:09;23.73;61.45
70246;SHT30;57637;49.272;8.590;2023-07-16T07:09:35;23.67;61.06
70246;SHT30;57637;49.272;8.590;2023-07-16T07:12:00;24.35;59.58
70246;SHT30;57637;49.272;8.590;2023-07-16T07:14:26;24.59;59.49
70246;SHT30;57637;49.272;8.590;2023-07-16T07:16:51;24.97;59.82
70246;SHT30;57637;49.272;8.590;2023-07-16T07:19:17;24.98;59.87
70246;SHT30;57637;49.272;8.590;2023-07-16T07:21:42;24.87;58.03
70246;SHT30;57637;49.272;8.590;2023-07-16T07:24:08;24.45;60.37
70246;SHT30;57637;49.272;8.590;2023-07-16T07:26:33;24.15;60.40
70246;SHT30;57637;49.272;8.590;2023-07-16T07:28:58;23.71;60.50
70246;SHT30;57637;49.272;8.590;2023-07-16T07:31:24;23.95;60.49
70246;SHT30;57637;49.272;8.590;2023-07-16T07:33:49;23.54;61.38
70246;SHT30;57637;49.272;8.590;2023-07-16T07:36:14;24.08;60.81
70246;SHT30;57637;49.272;8.590;2023-07-16T07:38:40;23.91;60.54
70246;SHT30;57637;49.272;8.590;2023-07-16T07:41:06;24.04;60.23
70246;SHT30;57637;49.272;8.590;2023-07-16T07:43:31;24.39;59.14
70246;SHT30;57637;49.272;8.590;2023-07-16T07:45:56;24.59;59.87
70246;SHT30;57637;49.272;8.590;2023-07-16T07:48:22;24.52;59.82
70246;SHT30;57637;49.272;8.590;2023-07-16T07:50:47;24.09;60.46
70246;SHT30;57637;49.272;8.590;2023-07-16T07:53:13;24.52;58.99
70246;SHT30;57637;49.272;8.590;2023-07-16T07:55:40;24.37;59.39
70246;SHT30;57637;49.272;8.590;2023-07-16T07:58:07;24.55;59.66
70246;SHT30;57637;49.272;8.590;2023-07-16T08:00:33;24.75;58.54
70246;SHT30;57637;49.272;8.590;2023-07-16T08:02:58;24.87;57.49
70246;SHT30;57637;49.272;8.590;2023-07-16T08:05:24;25.45;56.17
70246;SHT30;57637;49.272;8.590;2023-07-16T08:07:49;25.10;55.79
70246;SHT30;57637;49.272;8.590;2023-07-16T08:10:14;25.28;55.73
70246;SHT30;57637;49.272;8.590;2023-07-16T08:12:40;25.07;55.95
70246;SHT30;57637;49.272;8.590;2023-07-16T08:15:05;24.98;55.85
70246;SHT30;57637;49.272;8.590;2023-07-16T08:17:33;25.14;55.96
70246;SHT30;57637;49.272;8.590;2023-07-16T08:19:58;25.48;54.56
70246;SHT30;57637;49.272;8.590;2023-07-16T08:22:27;25.45;55.64
70246;SHT30;57637;49.272;8.590;2023-07-16T08:24:52;26.02;54.01
70246;SHT30;57637;49.272;8.590;2023-07-16T08:27:18;26.47;52.99
70246;SHT30;57637;49.272;8.590;2023-07-16T08:29:44;26.76;52.46
70246;SHT30;57637;49.272;8.590;2023-07-16T08:32:09;26.70;52.55
70246;SHT30;57637;49.272;8.590;2023-07-16T08:34:35;26.69;51.90
70246;SHT30;57637;49.272;8.590;2023-07-16T08:37:00;26.63;51.62
70246;SHT30;57637;49.272;8.590;2023-07-16T08:39:26;26.52;52.49
70246;SHT30;57637;49.272;8.590;2023-07-16T08:41:51;26.64;51.47
70246;SHT30;57637;49.272;8.590;2023-07-16T08:44:16;26.53;52.47
70246;SHT30;57637;49.272;8.590;2023-07-16T08:46:42;26.44;52.68
70246;SHT30;57637;49.272;8.590;2023-07-16T08:49:07;26.79;51.72
70246;SHT30;57637;49.272;8.590;2023-07-16T08:51:34;26.87;50.30
70246;SHT30;57637;49.272;8.590;2023-07-16T08:54:00;26.61;51.57
70246;SHT30;57637;49.272;8.590;2023-07-16T08:56:26;26.10;51.34
70246;SHT30;57637;49.272;8.590;2023-07-16T08:58:52;25.61;52.04
70246;SHT30;57637;49.272;8.590;2023-07-16T09:01:23;25.34;51.89
70246;SHT30;57637;49.272;8.590;2023-07-16T09:03:48;25.55;51.87
70246;SHT30;57637;49.272;8.590;2023-07-16T09:06:13;25.16;52.32
70246;SHT30;57637;49.272;8.590;2023-07-16T09:08:39;25.40;52.36
70246;SHT30;57637;49.272;8.590;2023-07-16T09:11:04;25.59;51.01
70246;SHT30;57637;49.272;8.590;2023-07-16T09:13:30;26.02;50.00
70246;SHT30;57637;49.272;8.590;2023-07-16T09:15:56;26.05;48.90
70246;SHT30;57637;49.272;8.590;2023-07-16T09:18:23;25.71;48.60
70246;SHT30;57637;49.272;8.590;2023-07-16T09:20:54;25.74;49.03
70246;SHT30;57637;49.272;8.590;2023-07-16T09:23:26;26.33;48.78
70246;SHT30;57637;49.272;8.590;2023-07-16T09:25:53;26.33;48.94
70246;SHT30;57637;49.272;8.590;2023-07-16T09:28:19;25.84;49.74
70246;SHT30;57637;49.272;8.590;2023-07-16T09:30:45;26.01;50.51
70246;SHT30;57637;49.272;8.590;2023-07-16T09:33:13;26.19;50.09
70246;SHT30;57637;49.272;8.590;2023-07-16T09:35:39;25.75;48.74
70246;SHT30;57637;49.272;8.590;2023-07-16T09:38:05;25.54;49.61
70246;SHT30;57637;49.272;8.590;2023-07-16T09:40:32;25.41;49.20
70246;SHT30;57637;49.272;8.590;2023-07-16T09:42:57;25.23;50.08
70246;SHT30;57637;49.272;8.590;2023-07-16T09:45:23;25.17;49.61
70246;SHT30;57637;49.272;8.590;2023-07-16T09:47:49;25.38;48.17
70246;SHT30;57637;49.272;8.590;2023-07-16T09:50:15;25.42;47.72
70246;SHT30;57637;49.272;8.590;2023-07-16T09:52:40;25.42;47.57
70246;SHT30;57637;49.272;8.590;2023-07-16T09:55:08;25.30;48.44
70246;SHT30;57637;49.272;8.590;2023-07-16T09:57:35;25.11;48.15
70246;SHT30;57637;49.272;8.590;2023-07-16T10:00:06;24.83;49.38
70246;SHT30;57637;49.272;8.590;2023-07-16T10:02:37;25.13;48.16
70246;SHT30;57637;49.272;8.590;2023-07-16T10:05:19;25.28;47.73
70246;SHT30;57637;49.272;8.590;2023-07-16T10:10:19;25.85;48.41
70246;SHT30;57637;49.272;8.590;2023-07-16T10:13:01;26.16;46.36
70246;SHT30;57637;49.272;8.590;2023-07-16T10:15:28;26.10;46.51
70246;SHT30;57637;49.272;8.590;2023-07-16T10:17:54;26.30;46.77
70246;SHT30;57637;49.272;8.590;2023-07-16T10:20:36;26.32;46.16
70246;SHT30;57637;49.272;8.590;2023-07-16T10:23:14;26.43;45.90
70246;SHT30;57637;49.272;8.590;2023-07-16T10:25:56;26.65;44.79
70246;SHT30;57637;49.272;8.590;2023-07-16T10:28:23;26.65;44.51
70246;SHT30;57637;49.272;8.590;2023-07-16T10:30:49;26.77;45.16
70246;SHT30;57637;49.272;8.590;2023-07-16T10:33:15;26.59;45.05
70246;SHT30;57637;49.272;8.590;2023-07-16T10:35:41;26.37;45.33
70246;SHT30;57637;49.272;8.590;2023-07-16T10:38:07;26.25;46.60
70246;SHT30;57637;49.272;8.590;2023-07-16T10:40:32;26.37;45.86
70246;SHT30;57637;49.272;8.590;2023-07-16T10:42:58;26.50;45.96
70246;SHT30;57637;49.272;8.590;2023-07-16T10:45:23;26.52;46.33
70246;SHT30;57637;49.272;8.590;2023-07-16T10:47:52;26.64;46.41
70246;SHT30;57637;49.272;8.590;2023-07-16T10:50:19;26.71;46.86
70246;SHT30;57637;49.272;8.590;2023-07-16T10:52:52;26.20;46.77
70246;SHT30;57637;49.272;8.590;2023-07-16T10:55:18;26.18;47.36
70246;SHT30;57637;49.272;8.590;2023-07-16T10:57:46;25.84;47.67
70246;SHT30;57637;49.272;8.590;2023-07-16T11:00:12;25.77;47.58
70246;SHT30;57637;49.272;8.590;2023-07-16T11:02:39;25.91;47.61
70246;SHT30;57637;49.272;8.590;2023-07-16T11:05:05;26.12;48.10
70246;SHT30;57637;49.272;8.590;2023-07-16T11:07:34;26.37;48.04
70246;SHT30;57637;49.272;8.590;2023-07-16T11:09:59;26.16;45.86
70246;SHT30;57637;49.272;8.590;2023-07-16T11:12:27;25.67;48.11
70246;SHT30;57637;49.272;8.590;2023-07-16T11:14:54;25.92;47.57
70246;SHT30;57637;49.272;8.590;2023-07-16T11:17:22;26.19;48.32
70246;SHT30;57637;49.272;8.590;2023-07-16T11:19:50;26.25;48.08
70246;SHT30;57637;49.272;8.590;2023-07-16T11:22:17;26.22;46.73
70246;SHT30;57637;49.272;8.590;2023-07-16T11:24:46;26.37;47.08
70246;SHT30;57637;49.272;8.590;2023-07-16T11:27:16;26.50;46.04
70246;SHT30;57637;49.272;8.590;2023-07-16T11:29:52;26.35;45.88
70246;SHT30;57637;49.272;8.590;2023-07-16T11:32:29;26.40;45.36
70246;SHT30;57637;49.272;8.590;2023-07-16T11:34:59;26.57;46.21
70246;SHT30;57637;49.272;8.590;2023-07-16T11:37:25;26.69;45.71
70246;SHT30;57637;49.272;8.590;2023-07-16T11:39:55;26.81;45.85
70246;SHT30;57637;49.272;8.590;2023-07-16T11:42:32;26.69;44.94
70246;SHT30;57637;49.272;8.590;2023-07-16T11:44:59;26.83;45.08
70246;SHT30;57637;49.272;8.590;2023-07-16T11:47:25;27.03;45.53
70246;SHT30;57637;49.272;8.590;2023-07-16T11:49:52;27.04;43.82
70246;SHT30;57637;49.272;8.590;2023-07-16T11:52:22;27.08;45.44
70246;SHT30;57637;49.272;8.590;2023-07-16T11:54:48;26.94;43.77
70246;SHT30;57637;49.272;8.590;2023-07-16T11:57:15;26.90;43.85
70246;SHT30;57637;49.272;8.590;2023-07-16T11:59:41;27.05;43.64
70246;SHT30;57637;49.272;8.590;2023-07-16T12:02:06;27.27;44.33
70246;SHT30;57637;49.272;8.590;2023-07-16T12:04:32;27.24;43.79
70246;SHT30;57637;49.272;8.590;2023-07-16T12:06:57;27.22;43.52
70246;SHT30;57637;49.272;8.590;2023-07-16T12:09:23;27.08;43.24
70246;SHT30;57637;49.272;8.590;2023-07-16T12:11:48;27.03;44.16
70246;SHT30;57637;49.272;8.590;2023-07-16T12:14:14;26.80;43.79
70246;SHT30;57637;49.272;8.590;2023-07-16T12:16:39;26.95;45.03
70246;SHT30;57637;49.272;8.590;2023-07-16T12:19:05;27.03;44.32
70246;SHT30;57637;49.272;8.590;2023-07-16T12:21:32;27.14;44.69
70246;SHT30;57637;49.272;8.590;2023-07-16T12:23:58;27.41;45.01
70246;SHT30;57637;49.272;8.590;2023-07-16T12:26:23;27.18;44.40
70246;SHT30;57637;49.272;8.590;2023-07-16T12:28:48;27.32;42.55
70246;SHT30;57637;49.272;8.590;2023-07-16T12:31:14;27.28;43.07
70246;SHT30;57637;49.272;8.590;2023-07-16T12:33:41;27.25;44.37
70246;SHT30;57637;49.272;8.590;2023-07-16T12:36:07;27.32;44.68
70246;SHT30;57637;49.272;8.590;2023-07-16T12:38:32;27.35;45.14
70246;SHT30;57637;49.272;8.590;2023-07-16T12:40:58;27.45;45.47
70246;SHT30;57637;49.272;8.590;2023-07-16T12:43:23;27.42;44.42
70246;SHT30;57637;49.272;8.590;2023-07-16T12:45:49;27.42;43.69
70246;SHT30;57637;49.272;8.590;2023-07-16T12:48:14;27.48;44.00
70246;SHT30;57637;49.272;8.590;2023-07-16T12:50:40;27.51;43.63
70246;SHT30;57637;49.272;8.590;2023-07-16T12:53:05;27.61;43.27
70246;SHT30;57637;49.272;8.590;2023-07-16T12:55:31;27.63;43.64
70246;SHT30;57637;49.272;8.590;2023-07-16T12:57:57;27.70;43.64
70246;SHT30;57637;49.272;8.590;2023-07-16T13:00:22;27.81;43.77
70246;SHT30;57637;49.272;8.590;2023-07-16T13:02:48;27.69;43.91
70246;SHT30;57637;49.272;8.590;2023-07-16T13:05:13;27.76;43.86
70246;SHT30;57637;49.272;8.590;2023-07-16T13:07:38;27.89;42.73
70246;SHT30;57637;49.272;8.590;2023-07-16T13:10:04;27.76;43.12
70246;SHT30;57637;49.272;8.590;2023-07-16T13:12:31;27.99;43.86
70246;SHT30;57637;49.272;8.590;2023-07-16T13:14:56;27.78;43.86
70246;SHT30;57637;49.272;8.590;2023-07-16T13:17:21;27.44;44.14
70246;SHT30;57637;49.272;8.590;2023-07-16T13:19:47;27.28;44.72
70246;SHT30;57637;49.272;8.590;2023-07-16T13:22:13;27.11;45.11
70246;SHT30;57637;49.272;8.590;2023-07-16T13:24:41;26.95;45.53
70246;SHT30;57637;49.272;8.590;2023-07-16T13:27:06;26.91;45.42
70246;SHT30;57637;49.272;8.590;2023-07-16T13:29:31;27.18;45.06
70246;SHT30;57637;49.272;8.590;2023-07-16T13:31:57;27.48;44.40
70246;SHT30;57637;49.272;8.590;2023-07-16T13:34:22;27.61;43.62
70246;SHT30;57637;49.272;8.590;2023-07-16T13:36:47;27.78;43.43
70246;SHT30;57637;49.272;8.590;2023-07-16T13:39:13;27.67;43.29
70246;SHT30;57637;49.272;8.590;2023-07-16T13:41:38;27.76;43.71
70246;SHT30;57637;49.272;8.590;2023-07-16T13:44:04;27.90;42.50
70246;SHT30;57637;49.272;8.590;2023-07-16T13:46:30;28.03;43.14
70246;SHT30;57637;49.272;8.590;2023-07-16T13:48:55;28.16;42.25
70246;SHT30;57637;49.272;8.590;2023-07-16T13:51:20;28.03;41.26
70246;SHT30;57637;49.272;8.590;2023-07-16T13:53:46;27.83;40.94
70246;SHT30;57637;49.272;8.590;2023-07-16T13:56:11;27.75;42.22
70246;SHT30;57637;49.272;8.590;2023-07-16T13:58:36;27.90;42.91
70246;SHT30;57637;49.272;8.590;2023-07-16T14:01:02;28.05;41.13
70246;SHT30;57637;49.272;8.590;2023-07-16T14:03:28;27.89;41.96
70246;SHT30;57637;49.272;8.590;2023-07-16T14:05:53;28.00;43.19
70246;SHT30;57637;49.272;8.590;2023-07-16T14:08:18;28.13;41.21
70246;SHT30;57637;49.272;8.590;2023-07-16T14:10:44;28.27;41.05
70246;SHT30;57637;49.272;8.590;2023-07-16T14:13:10;28.32;40.59
70246;SHT30;57637;49.272;8.590;2023-07-16T14:15:37;28.05;41.29
70246;SHT30;57637;49.272;8.590;2023-07-16T14:18:03;27.73;42.22
70246;SHT30;57637;49.272;8.590;2023-07-16T14:20:28;27.78;42.16
70246;SHT30;57637;49.272;8.590;2023-07-16T14:22:53;27.76;41.42
70246;SHT30;57637;49.272;8.590;2023-07-16T14:25:19;27.97;42.07
70246;SHT30;57637;49.272;8.590;2023-07-16T14:27:44;27.89;41.22
70246;SHT30;57637;49.272;8.590;2023-07-16T14:30:10;28.10;41.00
70246;SHT30;57637;49.272;8.590;2023-07-16T14:32:36;28.26;40.84
70246;SHT30;57637;49.272;8.590;2023-07-16T14:35:01;28.06;41.18
70246;SHT30;57637;49.272;8.590;2023-07-16T14:37:26;28.05;41.69
70246;SHT30;57637;49.272;8.590;2023-07-16T14:39:52;28.24;41.09
70246;SHT30;57637;49.272;8.590;2023-07-16T14:42:17;28.36;41.21
70246;SHT30;57637;49.272;8.590;2023-07-16T14:44:43;28.36;40.61
70246;SHT30;57637;49.272;8.590;2023-07-16T14:47:08;28.12;40.00
70246;SHT30;57637;49.272;8.590;2023-07-16T14:49:33;28.02;40.00
70246;SHT30;57637;49.272;8.590;2023-07-16T14:51:59;27.72;41.49
70246;SHT30;57637;49.272;8.590;2023-07-16T14:54:25;27.73;41.14
70246;SHT30;57637;49.272;8.590;2023-07-16T14:56:50;27.79;40.97
70246;SHT30;57637;49.272;8.590;2023-07-16T14:59:15;27.93;41.03
70246;SHT30;57637;49.272;8.590;2023-07-16T15:01:42;27.97;40.82
70246;SHT30;57637;49.272;8.590;2023-07-16T15:04:08;27.90;40.81
70246;SHT30;57637;49.272;8.590;2023-07-16T15:06:33;27.66;42.12
70246;SHT30;57637;49.272;8.590;2023-07-16T15:08:59;27.67;43.10
70246;SHT30;57637;49.272;8.590;2023-07-16T15:11:24;27.88;42.19
70246;SHT30;57637;49.272;8.590;2023-07-16T15:13:50;27.32;42.57
70246;SHT30;57637;49.272;8.590;2023-07-16T15:16:16;27.46;42.31
70246;SHT30;57637;49.272;8.590;2023-07-16T15:18:41;27.38;43.31
70246;SHT30;57637;49.272;8.590;2023-07-16T15:21:08;27.37;41.75
70246;SHT30;57637;49.272;8.590;2023-07-16T15:23:33;27.42;41.88
70246;SHT30;57637;49.272;8.590;2023-07-16T15:26:03;27.34;42.03
70246;SHT30;57637;49.272;8.590;2023-07-16T15:28:30;27.51;42.79
70246;SHT30;57637;49.272;8.590;2023-07-16T15:30:59;27.58;42.93
70246;SHT30;57637;49.272;8.590;2023-07-16T15:33:27;27.75;42.59
70246;SHT30;57637;49.272;8.590;2023-07-16T15:35:54;27.88;42.37